Time;durP1;ratioP1;P1;durP2;ratioP2;P2;SDS_P1;SDS_P2;PMS_P1;PMS_P2;Temp;Humidity;BMP_temperature;BMP_pressure;BME280_temperature;BME280_humidity;BME280_pressure;Samples;Min_cycle;Max_cycle;Signal;HPM_P1;HPM_P2
2024/02/24 00:02:07;;;;;;;;;;;;;;;17.80;33.44;100564.57;102627;1295;61338;-79
2024/02/24 00:04:32;;;;;;;;;;;;;;;17.79;33.46;100560.49;102761;1297;61381;-82
2024/02/24 00:06:58;;;;;;;;;;;;;;;17.79;33.52;100561.23;102639;1294;62337;-79
2024/02/24 00:09:24;;;;;;;;;;;;;;;17.80;33.32;100556.73;102730;1291;61429;-79
2024/02/24 00:11:50;;;;;;;;;;;;;;;17.79;33.44;100558.03;102710;1291;62734;-79
2024/02/24 00:14:15;;;;;;;;;;;;;;;17.79;33.54;100555.90;102815;1292;61465;-79
2024/02/24 00:16:41;;;;;;;;;;;;;;;17.78;33.45;100553.08;102819;1294;62420;-81
2024/02/24 00:19:06;;;;;;;;;;;;;;;17.79;33.52;100553.94;102771;1296;61391;-80
2024/02/24 00:21:32;;;;;;;;;;;;;;;17.79;33.56;100554.84;102637;1294;61401;-80
2024/02/24 00:23:58;;;;;;;;;;;;;;;17.78;33.45;100556.66;102818;1289;61939;-81
2024/02/24 00:26:27;;;;;;;;;;;;;;;17.78;33.43;100558.98;102747;1296;73303;-79
2024/02/24 00:28:52;;;;;;;;;;;;;;;17.78;33.59;100562.89;102780;1290;62662;-80
2024/02/24 00:31:18;;;;;;;;;;;;;;;17.78;33.55;100560.76;102763;1289;61273;-81
2024/02/24 00:33:43;;;;;;;;;;;;;;;17.78;33.39;100558.79;102856;1291;61719;-80
2024/02/24 00:36:09;;;;;;;;;;;;;;;17.78;33.52;100560.05;102656;1289;61437;-79
2024/02/24 00:38:35;;;;;;;;;;;;;;;17.77;33.48;100557.59;102820;1291;61404;-79
2024/02/24 00:41:00;;;;;;;;;;;;;;;17.77;33.39;100555.10;102736;1290;73692;-80
2024/02/24 00:43:26;;;;;;;;;;;;;;;17.77;33.53;100556.17;102808;1292;61407;-80
2024/02/24 00:45:52;;;;;;;;;;;;;;;17.77;33.47;100554.57;102842;1291;61391;-79
2024/02/24 00:48:17;;;;;;;;;;;;;;;17.77;33.59;100550.13;102644;1292;62614;-80
2024/02/24 00:50:43;;;;;;;;;;;;;;;17.77;33.45;100555.30;102748;1291;61311;-82
2024/02/24 00:53:09;;;;;;;;;;;;;;;17.77;33.42;100554.94;102702;1291;74706;-80
2024/02/24 00:55:35;;;;;;;;;;;;;;;17.76;33.55;100557.47;102703;1292;62528;-80
2024/02/24 00:58:02;;;;;;;;;;;;;;;17.76;33.41;100554.43;102597;1292;61403;-80
2024/02/24 01:00:30;;;;;;;;;;;;;;;17.76;33.47;100557.10;102790;1290;72473;-81
2024/02/24 01:02:57;;;;;;;;;;;;;;;17.76;33.50;100555.16;102781;1292;74196;-79
2024/02/24 01:05:23;;;;;;;;;;;;;;;17.76;33.28;100554.09;102792;1291;61750;-82
2024/02/24 01:07:48;;;;;;;;;;;;;;;17.75;33.39;100548.06;102674;1292;61488;-81
2024/02/24 01:10:14;;;;;;;;;;;;;;;17.76;33.46;100547.51;102743;1292;61397;-80
2024/02/24 01:12:40;;;;;;;;;;;;;;;17.76;33.44;100543.95;102689;1291;62256;-79
2024/02/24 01:15:06;;;;;;;;;;;;;;;17.76;33.43;100542.88;103033;1292;61359;-79
2024/02/24 01:17:32;;;;;;;;;;;;;;;17.76;33.39;100538.62;102790;1290;61433;-81
2024/02/24 01:19:57;;;;;;;;;;;;;;;17.76;33.44;100539.50;102759;1293;61411;-80
2024/02/24 01:22:23;;;;;;;;;;;;;;;17.75;33.45;100539.55;102747;1292;62566;-80
2024/02/24 01:24:51;;;;;;;;;;;;;;;17.75;33.48;100538.64;102777;1291;62699;-81
2024/02/24 01:27:17;;;;;;;;;;;;;;;17.75;33.39;100541.00;102751;1291;61387;-81
2024/02/24 01:40:51;;;;;;;;;;;;;;;17.75;33.50;100540.13;102826;1289;61433;-82
2024/02/24 01:43:24;;;;;;;;;;;;;;;17.75;33.46;100537.09;102757;1291;62531;-80
2024/02/24 01:45:50;;;;;;;;;;;;;;;17.74;33.53;100535.52;102636;1292;73543;-81
2024/02/24 01:48:16;;;;;;;;;;;;;;;17.74;33.51;100535.52;102628;1297;61336;-80
2024/02/24 01:50:41;;;;;;;;;;;;;;;17.73;33.51;100534.65;102737;1290;62052;-81
2024/02/24 01:53:07;;;;;;;;;;;;;;;17.74;33.33;100531.45;102778;1290;61380;-80
2024/02/24 01:55:32;;;;;;;;;;;;;;;17.73;33.38;100528.97;102767;1291;62982;-79
2024/02/24 01:57:58;;;;;;;;;;;;;;;17.73;33.45;100532.55;102832;1289;62602;-80
2024/02/24 02:00:24;;;;;;;;;;;;;;;17.74;33.44;100531.63;102798;1296;61472;-81
2024/02/24 02:02:52;;;;;;;;;;;;;;;17.73;33.41;100538.59;102780;1290;61397;-80
2024/02/24 02:05:18;;;;;;;;;;;;;;;17.73;33.53;100533.61;102715;1291;61264;-81
2024/02/24 02:07:43;;;;;;;;;;;;;;;17.73;33.46;100535.77;102766;1292;61454;-80
2024/02/24 02:10:09;;;;;;;;;;;;;;;17.73;33.44;100535.05;102662;1290;62260;-80
2024/02/24 02:12:35;;;;;;;;;;;;;;;17.73;33.43;100536.13;102687;1292;61405;-80
2024/02/24 02:15:03;;;;;;;;;;;;;;;17.73;33.58;100534.70;102775;1296;61401;-79
2024/02/24 02:17:29;;;;;;;;;;;;;;;17.73;33.41;100532.23;102637;1292;61394;-82
2024/02/24 02:19:59;;;;;;;;;;;;;;;17.72;33.49;100536.36;102859;1291;62458;-82
2024/02/24 02:22:24;;;;;;;;;;;;;;;17.73;33.47;100542.19;102766;1290;61798;-82
2024/02/24 02:24:50;;;;;;;;;;;;;;;17.72;33.52;100543.46;102703;1290;61392;-81
2024/02/24 02:27:16;;;;;;;;;;;;;;;17.73;33.35;100548.97;102779;1289;61384;-80
2024/02/24 02:29:42;;;;;;;;;;;;;;;17.72;33.43;100553.08;102736;1291;62644;-82
2024/02/24 02:32:10;;;;;;;;;;;;;;;17.72;33.44;100557.36;102681;1291;61395;-79
2024/02/24 02:34:36;;;;;;;;;;;;;;;17.72;33.39;100555.43;102709;1290;61359;-79
2024/02/24 02:37:02;;;;;;;;;;;;;;;17.72;33.34;100555.59;102740;1289;61439;-80
2024/02/24 02:39:28;;;;;;;;;;;;;;;17.72;33.43;100560.77;102683;1292;62575;-80
2024/02/24 02:41:53;;;;;;;;;;;;;;;17.71;33.53;100560.08;102761;1291;62468;-81
2024/02/24 02:44:19;;;;;;;;;;;;;;;17.71;33.49;100562.75;102799;1292;61487;-81
2024/02/24 02:46:45;;;;;;;;;;;;;;;17.71;33.40;100560.83;102776;1289;62290;-81
2024/02/24 02:49:11;;;;;;;;;;;;;;;17.71;33.46;100560.98;102825;1294;61829;-80
2024/02/24 02:51:36;;;;;;;;;;;;;;;17.70;33.37;100559.97;102806;1292;61420;-79
2024/02/24 02:54:02;;;;;;;;;;;;;;;17.71;33.52;100562.77;102666;1289;62040;-80
2024/02/24 02:56:28;;;;;;;;;;;;;;;17.71;33.43;100563.52;102553;1290;61393;-80
2024/02/24 02:59:03;;;;;;;;;;;;;;;17.71;33.49;100563.88;102922;1291;62438;-80
2024/02/24 03:01:29;;;;;;;;;;;;;;;17.71;33.47;100562.25;102755;1293;75207;-80
2024/02/24 03:03:54;;;;;;;;;;;;;;;17.71;33.48;100565.64;102785;1291;61379;-84
2024/02/24 03:06:24;;;;;;;;;;;;;;;17.70;33.44;100567.62;102774;1290;61334;-82
2024/02/24 03:09:06;;;;;;;;;;;;;;;17.70;33.39;100568.49;102715;1291;72801;-80
2024/02/24 03:11:31;;;;;;;;;;;;;;;17.70;33.41;100568.16;102876;1292;62502;-81
2024/02/24 03:13:57;;;;;;;;;;;;;;;17.70;33.33;100567.82;102791;1289;61425;-81
2024/02/24 03:16:23;;;;;;;;;;;;;;;17.70;33.43;100569.58;102807;1289;61718;-83
2024/02/24 03:18:49;;;;;;;;;;;;;;;17.70;33.42;100576.35;102688;1295;62959;-81
2024/02/24 03:21:31;;;;;;;;;;;;;;;17.70;33.46;100574.24;102989;1291;61381;-83
2024/02/24 03:23:57;;;;;;;;;;;;;;;17.70;33.32;100577.96;102729;1296;74288;-79
2024/02/24 03:26:23;;;;;;;;;;;;;;;17.69;33.40;100582.61;102671;1291;61973;-81
2024/02/24 03:28:48;;;;;;;;;;;;;;;17.70;33.39;100587.94;102909;1291;61383;-79
2024/02/24 03:31:14;;;;;;;;;;;;;;;17.69;33.41;100586.89;102685;1291;61439;-79
2024/02/24 03:33:40;;;;;;;;;;;;;;;17.69;33.41;100587.09;102629;1290;61422;-80
2024/02/24 03:36:05;;;;;;;;;;;;;;;17.69;33.37;100584.25;102778;1297;61526;-80
2024/02/24 03:38:31;;;;;;;;;;;;;;;17.69;33.35;100593.14;102852;1290;61401;-80
2024/02/24 03:40:57;;;;;;;;;;;;;;;17.69;33.41;100596.90;102886;1291;62596;-79
2024/02/24 03:43:22;;;;;;;;;;;;;;;17.68;33.38;100603.15;102795;1291;61405;-81
2024/02/24 03:45:49;;;;;;;;;;;;;;;17.69;33.39;100605.63;102838;1292;61395;-79
2024/02/24 03:48:16;;;;;;;;;;;;;;;17.68;33.44;100605.12;102766;1291;62561;-80
2024/02/24 03:50:45;;;;;;;;;;;;;;;17.68;33.39;100605.30;102663;1291;61843;-82
2024/02/24 03:53:11;;;;;;;;;;;;;;;17.69;33.42;100608.48;102723;1292;72503;-81
2024/02/24 03:55:38;;;;;;;;;;;;;;;17.68;33.46;100606.23;102690;1291;74870;-79
2024/02/24 03:58:04;;;;;;;;;;;;;;;17.68;33.40;100604.07;102697;1292;62485;-81
2024/02/24 04:00:34;;;;;;;;;;;;;;;17.68;33.43;100603.90;102746;1291;61299;-80
2024/02/24 04:03:00;;;;;;;;;;;;;;;17.67;33.42;100604.98;102762;1295;72426;-80
2024/02/24 04:05:26;;;;;;;;;;;;;;;17.67;33.36;100606.45;102692;1296;61417;-80
2024/02/24 04:07:51;;;;;;;;;;;;;;;17.67;33.39;100606.06;102865;1290;62578;-81
2024/02/24 04:10:17;;;;;;;;;;;;;;;17.67;33.38;100603.95;102665;1291;61488;-79
2024/02/24 04:12:43;;;;;;;;;;;;;;;17.66;33.40;100608.96;101908;1289;1024878;-81
2024/02/24 04:15:09;;;;;;;;;;;;;;;17.66;33.46;100608.42;103440;1291;61341;-81
2024/02/24 04:17:34;;;;;;;;;;;;;;;17.66;33.38;100605.96;102674;1295;74436;-81
2024/02/24 04:20:00;;;;;;;;;;;;;;;17.66;33.40;100607.02;102660;1290;62380;-79
2024/02/24 04:22:25;;;;;;;;;;;;;;;17.66;33.45;100609.70;102718;1294;62214;-80
2024/02/24 04:24:52;;;;;;;;;;;;;;;17.66;33.34;100608.64;102843;1291;61309;-81
2024/02/24 04:27:17;;;;;;;;;;;;;;;17.66;33.40;100608.08;102671;1295;62498;-80
2024/02/24 04:29:43;;;;;;;;;;;;;;;17.66;33.26;100609.39;102764;1296;61433;-80
2024/02/24 04:32:08;;;;;;;;;;;;;;;17.66;33.37;100611.84;102717;1291;62196;-81
2024/02/24 04:34:36;;;;;;;;;;;;;;;17.65;33.39;100618.09;102650;1295;61374;-83
2024/02/24 04:37:02;;;;;;;;;;;;;;;17.66;33.38;100616.83;102757;1289;72538;-81
2024/02/24 04:39:28;;;;;;;;;;;;;;;17.65;33.42;100616.52;102781;1291;61471;-79
2024/02/24 04:41:53;;;;;;;;;;;;;;;17.66;33.35;100618.30;102695;1296;61379;-80
2024/02/24 04:44:19;;;;;;;;;;;;;;;17.65;33.39;100622.58;102803;1291;61488;-81
2024/02/24 04:46:44;;;;;;;;;;;;;;;17.65;33.49;100627.04;102699;1297;61447;-82
2024/02/24 04:49:10;;;;;;;;;;;;;;;17.64;33.35;100627.78;102748;1291;73884;-81
2024/02/24 04:51:35;;;;;;;;;;;;;;;17.65;33.39;100629.54;102704;1292;61333;-84
2024/02/24 04:54:01;;;;;;;;;;;;;;;17.64;33.38;100631.16;102785;1291;62015;-80
2024/02/24 04:56:28;;;;;;;;;;;;;;;17.64;33.39;100632.05;102730;1291;61800;-79
2024/02/24 04:58:54;;;;;;;;;;;;;;;17.64;33.42;100638.30;102719;1295;61382;-83
2024/02/24 05:01:19;;;;;;;;;;;;;;;17.64;33.42;100639.89;102841;1291;62234;-81
2024/02/24 05:03:45;;;;;;;;;;;;;;;17.63;33.33;100638.14;102738;1291;61439;-81
2024/02/24 05:06:11;;;;;;;;;;;;;;;17.63;33.38;100642.08;102614;1297;61299;-81
2024/02/24 05:08:36;;;;;;;;;;;;;;;17.63;33.37;100642.45;102677;1291;61902;-79
2024/02/24 05:11:05;;;;;;;;;;;;;;;17.63;33.44;100650.11;102799;1292;61408;-81
2024/02/24 05:13:30;;;;;;;;;;;;;;;17.63;33.31;100652.58;102618;1294;74591;-81
2024/02/24 05:15:56;;;;;;;;;;;;;;;17.63;33.29;100654.89;102737;1292;61374;-79
2024/02/24 05:18:22;;;;;;;;;;;;;;;17.63;33.38;100654.91;102788;1291;61443;-80
2024/02/24 05:20:48;;;;;;;;;;;;;;;17.63;33.34;100663.30;102644;1296;62267;-80
2024/02/24 05:23:15;;;;;;;;;;;;;;;17.63;33.33;100668.10;102799;1291;61771;-80
2024/02/24 05:25:41;;;;;;;;;;;;;;;17.63;33.35;100667.37;102755;1293;61596;-80
2024/02/24 05:28:06;;;;;;;;;;;;;;;17.62;33.37;100661.18;102761;1291;61860;-80
2024/02/24 05:30:32;;;;;;;;;;;;;;;17.63;33.33;100662.75;102808;1291;61418;-81
2024/02/24 05:32:57;;;;;;;;;;;;;;;17.62;33.38;100664.02;102778;1291;73736;-81
2024/02/24 05:35:28;;;;;;;;;;;;;;;17.62;33.37;100666.52;102526;1292;73356;-81
2024/02/24 05:37:54;;;;;;;;;;;;;;;17.62;33.31;100665.81;102740;1299;62543;-82
2024/02/24 05:40:23;;;;;;;;;;;;;;;17.62;33.44;100670.78;102632;1291;61392;-82
2024/02/24 05:42:48;;;;;;;;;;;;;;;17.62;33.34;100680.77;102702;1291;71562;-80
2024/02/24 05:45:14;;;;;;;;;;;;;;;17.62;33.32;100690.40;102864;1292;61484;-79
2024/02/24 05:47:42;;;;;;;;;;;;;;;17.62;33.41;100697.50;102807;1291;61594;-81
2024/02/24 05:50:08;;;;;;;;;;;;;;;17.62;33.23;100697.89;102686;1292;61452;-81
2024/02/24 05:52:34;;;;;;;;;;;;;;;17.62;33.36;100697.19;102761;1293;62345;-80
2024/02/24 05:54:59;;;;;;;;;;;;;;;17.62;33.45;100700.19;102733;1291;61350;-80
2024/02/24 05:57:25;;;;;;;;;;;;;;;17.61;33.35;100699.50;102751;1292;62434;-80
2024/02/24 05:59:59;;;;;;;;;;;;;;;17.61;33.37;100703.94;102873;1291;61344;-80
2024/02/24 06:02:25;;;;;;;;;;;;;;;17.61;33.41;100707.36;102655;1290;71395;-80
2024/02/24 06:04:51;;;;;;;;;;;;;;;17.61;33.26;100709.31;102703;1296;62315;-81
2024/02/24 06:07:16;;;;;;;;;;;;;;;17.60;33.31;100713.07;102710;1291;61858;-80
2024/02/24 06:09:42;;;;;;;;;;;;;;;17.60;33.48;100715.00;102686;1294;61471;-83
2024/02/24 06:12:08;;;;;;;;;;;;;;;17.61;33.35;100716.07;102680;1291;61857;-80
2024/02/24 06:14:34;;;;;;;;;;;;;;;17.60;33.37;100715.22;103079;1296;61398;-79
2024/02/24 06:16:59;;;;;;;;;;;;;;;17.60;33.28;100711.14;102597;1290;73301;-82
2024/02/24 06:19:25;;;;;;;;;;;;;;;17.59;33.30;100721.50;102666;1295;61417;-81
2024/02/24 06:21:51;;;;;;;;;;;;;;;17.59;33.46;100723.79;102799;1290;61446;-80
2024/02/24 06:24:18;;;;;;;;;;;;;;;17.59;33.29;100724.88;102696;1295;61506;-80
2024/02/24 06:26:44;;;;;;;;;;;;;;;17.59;33.37;100730.91;102760;1291;61305;-80
2024/02/24 06:29:09;;;;;;;;;;;;;;;17.59;33.31;100725.77;102768;1295;62078;-80
2024/02/24 06:31:37;;;;;;;;;;;;;;;17.59;33.35;100721.52;102755;1292;61327;-80
2024/02/24 06:34:04;;;;;;;;;;;;;;;17.59;33.41;100722.05;102640;1292;61805;-83
2024/02/24 06:36:29;;;;;;;;;;;;;;;17.59;33.40;100726.52;102751;1291;61980;-80
2024/02/24 06:38:55;;;;;;;;;;;;;;;17.58;33.34;100725.27;102963;1290;61330;-80
2024/02/24 06:41:23;;;;;;;;;;;;;;;17.58;33.30;100723.66;102825;1291;61409;-81
2024/02/24 06:43:51;;;;;;;;;;;;;;;17.58;33.40;100720.65;102811;1290;61308;-81
2024/02/24 06:46:16;;;;;;;;;;;;;;;17.59;33.38;100720.44;102883;1296;72380;-80
2024/02/24 06:48:42;;;;;;;;;;;;;;;17.58;33.35;100715.66;102767;1292;62652;-80
2024/02/24 06:51:08;;;;;;;;;;;;;;;17.58;33.30;100719.04;102764;1291;61483;-81
2024/02/24 06:53:34;;;;;;;;;;;;;;;17.58;33.35;100724.91;102936;1294;61386;-81
2024/02/24 06:56:07;;;;;;;;;;;;;;;17.58;33.35;100728.47;102757;1292;61722;-80
2024/02/24 06:58:33;;;;;;;;;;;;;;;17.58;33.41;100724.56;102720;1291;75351;-79
2024/02/24 07:00:59;;;;;;;;;;;;;;;17.59;33.40;100724.91;102717;1291;62114;-80
2024/02/24 07:03:29;;;;;;;;;;;;;;;17.58;33.32;100725.98;102695;1291;61446;-81
2024/02/24 07:05:55;;;;;;;;;;;;;;;17.58;33.41;100727.60;102780;1289;71726;-79
2024/02/24 07:08:21;;;;;;;;;;;;;;;17.58;33.40;100734.36;102864;1291;61435;-80
2024/02/24 07:10:46;;;;;;;;;;;;;;;17.59;33.40;100736.64;102640;1291;61467;-82
2024/02/24 07:13:12;;;;;;;;;;;;;;;17.59;33.36;100741.44;102763;1294;61478;-80
2024/02/24 07:15:38;;;;;;;;;;;;;;;17.59;33.36;100739.14;102797;1292;62456;-80
2024/02/24 07:18:04;;;;;;;;;;;;;;;17.59;33.38;100741.45;102823;1294;61304;-81
2024/02/24 07:20:30;;;;;;;;;;;;;;;17.59;33.41;100737.69;102647;1296;74693;-81
2024/02/24 07:22:55;;;;;;;;;;;;;;;17.60;33.38;100733.56;102780;1290;61402;-82
2024/02/24 07:25:21;;;;;;;;;;;;;;;17.60;33.44;100731.95;102695;1291;61415;-79
2024/02/24 07:27:46;;;;;;;;;;;;;;;17.61;33.29;100731.23;102677;1292;61454;-80
2024/02/24 07:30:12;;;;;;;;;;;;;;;17.60;33.46;100735.68;102809;1291;61458;-82
2024/02/24 07:32:38;;;;;;;;;;;;;;;17.61;33.36;100735.66;102821;1291;75535;-80
2024/02/24 07:35:04;;;;;;;;;;;;;;;17.61;33.34;100738.15;102687;1291;62294;-81
2024/02/24 07:37:30;;;;;;;;;;;;;;;17.61;33.40;100739.74;102657;1289;61405;-80
2024/02/24 07:39:55;;;;;;;;;;;;;;;17.61;33.41;100743.45;102791;1294;62110;-80
2024/02/24 07:42:21;;;;;;;;;;;;;;;17.62;33.42;100745.06;102857;1292;61774;-80
2024/02/24 07:44:47;;;;;;;;;;;;;;;17.62;33.37;100745.38;102730;1291;62469;-81
2024/02/24 07:47:14;;;;;;;;;;;;;;;17.63;33.40;100748.71;102759;1294;61334;-80
2024/02/24 07:49:40;;;;;;;;;;;;;;;17.63;33.44;100747.82;102891;1291;61295;-80
2024/02/24 07:52:06;;;;;;;;;;;;;;;17.63;33.44;100745.14;102915;1291;61407;-80
2024/02/24 07:54:31;;;;;;;;;;;;;;;17.63;33.41;100738.55;102863;1293;62653;-81
2024/02/24 07:56:57;;;;;;;;;;;;;;;17.63;33.49;100733.38;102738;1291;61489;-82
2024/02/24 07:59:23;;;;;;;;;;;;;;;17.64;33.49;100737.27;102932;1294;61394;-82
2024/02/24 08:01:51;;;;;;;;;;;;;;;17.64;33.42;100741.52;102919;1291;61388;-80
2024/02/24 08:04:20;;;;;;;;;;;;;;;17.65;33.44;100745.59;102667;1291;71583;-81
2024/02/24 08:06:46;;;;;;;;;;;;;;;17.65;33.46;100747.50;102696;1291;75412;-82
2024/02/24 08:09:11;;;;;;;;;;;;;;;17.66;33.46;100744.27;102704;1291;62348;-81
2024/02/24 08:11:40;;;;;;;;;;;;;;;17.66;33.46;100743.52;102893;1291;61317;-80
2024/02/24 08:14:07;;;;;;;;;;;;;;;17.67;33.54;100746.67;102733;1292;73066;-80
2024/02/24 08:16:41;;;;;;;;;;;;;;;17.67;33.51;100742.79;102716;1291;74571;-80
2024/02/24 08:19:07;;;;;;;;;;;;;;;17.68;33.60;100745.94;102753;1297;62369;-80
2024/02/24 08:21:36;;;;;;;;;;;;;;;17.68;33.56;100748.42;102929;1290;61390;-81
2024/02/24 08:24:09;;;;;;;;;;;;;;;17.68;33.57;100750.01;102922;1294;71555;-80
2024/02/24 08:26:43;;;;;;;;;;;;;;;17.68;33.67;100749.45;103007;1294;74742;-81
2024/02/24 08:29:09;;;;;;;;;;;;;;;17.69;33.56;100752.64;102850;1291;61320;-82
2024/02/24 08:31:35;;;;;;;;;;;;;;;17.69;33.67;100751.70;102980;1294;61482;-79
2024/02/24 08:34:02;;;;;;;;;;;;;;;17.70;33.61;100752.23;102729;1294;61897;-80
2024/02/24 08:36:28;;;;;;;;;;;;;;;17.70;33.64;100748.98;102730;1294;61298;-79
2024/02/24 08:38:56;;;;;;;;;;;;;;;17.71;33.65;100746.48;102950;1295;61457;-80
2024/02/24 08:41:22;;;;;;;;;;;;;;;17.71;33.80;100743.80;102903;1291;61310;-82
2024/02/24 08:43:48;;;;;;;;;;;;;;;17.71;33.68;100744.13;102775;1295;61454;-80
2024/02/24 08:46:14;;;;;;;;;;;;;;;17.72;33.73;100743.73;102867;1294;61310;-82
2024/02/24 08:48:39;;;;;;;;;;;;;;;17.73;33.80;100741.56;102686;1294;61402;-80
2024/02/24 08:51:05;;;;;;;;;;;;;;;17.73;33.75;100737.77;102788;1291;62185;-82
2024/02/24 08:53:31;;;;;;;;;;;;;;;17.73;33.75;100741.50;102729;1292;61475;-81
2024/02/24 08:56:02;;;;;;;;;;;;;;;17.74;33.76;100741.48;102806;1292;72528;-80
2024/02/24 08:58:28;;;;;;;;;;;;;;;17.75;33.78;100743.58;102699;1292;75484;-79
2024/02/24 09:00:56;;;;;;;;;;;;;;;17.75;33.69;100745.13;102819;1292;61389;-82
2024/02/24 09:03:22;;;;;;;;;;;;;;;17.76;33.77;100749.16;102685;1289;62440;-81
2024/02/24 09:05:48;;;;;;;;;;;;;;;17.77;33.75;100750.73;102693;1294;73331;-80
2024/02/24 09:08:14;;;;;;;;;;;;;;;17.78;33.76;100746.59;103033;1293;61390;-82
2024/02/24 09:10:40;;;;;;;;;;;;;;;17.79;33.75;100747.09;102645;1294;61398;-79
2024/02/24 09:13:06;;;;;;;;;;;;;;;17.80;33.89;100744.88;102704;1291;61975;-80
2024/02/24 09:15:31;;;;;;;;;;;;;;;17.81;33.81;100744.66;102652;1292;61393;-79
2024/02/24 09:17:58;;;;;;;;;;;;;;;17.81;33.81;100742.31;102765;1297;62133;-82
2024/02/24 09:20:23;;;;;;;;;;;;;;;17.82;33.77;100744.20;102808;1293;74392;-81
2024/02/24 09:22:49;;;;;;;;;;;;;;;17.82;33.76;100743.32;102712;1291;62405;-81
2024/02/24 09:25:15;;;;;;;;;;;;;;;17.83;33.84;100747.88;102870;1294;61331;-80
2024/02/24 09:27:46;;;;;;;;;;;;;;;17.84;33.76;100748.21;102659;1292;62189;-80
2024/02/24 09:30:11;;;;;;;;;;;;;;;17.85;33.81;100752.77;102592;1292;73483;-79
2024/02/24 09:32:37;;;;;;;;;;;;;;;17.86;33.85;100750.77;102812;1296;61295;-80
2024/02/24 09:35:03;;;;;;;;;;;;;;;17.87;33.83;100747.30;102711;1292;62578;-79
2024/02/24 09:37:29;;;;;;;;;;;;;;;17.88;33.78;100746.90;102845;1293;62282;-80
2024/02/24 09:39:55;;;;;;;;;;;;;;;17.88;33.80;100748.84;102811;1294;61933;-82
2024/02/24 09:42:27;;;;;;;;;;;;;;;17.89;33.89;100760.91;102817;1292;61777;-80
2024/02/24 09:44:59;;;;;;;;;;;;;;;17.90;33.84;100755.33;102679;1297;61309;-81
2024/02/24 09:47:25;;;;;;;;;;;;;;;17.90;33.88;100759.39;102788;1292;72555;-81
2024/02/24 09:49:51;;;;;;;;;;;;;;;17.91;33.91;100756.87;102839;1296;61358;-79
2024/02/24 09:52:16;;;;;;;;;;;;;;;17.93;33.88;100758.77;102942;1291;61459;-79
2024/02/24 09:54:42;;;;;;;;;;;;;;;17.93;33.82;100759.45;102810;1291;61392;-79
2024/02/24 09:57:08;;;;;;;;;;;;;;;17.94;33.84;100758.52;102680;1290;61500;-80
2024/02/24 09:59:34;;;;;;;;;;;;;;;17.95;33.89;100760.78;102747;1292;62222;-81
2024/02/24 10:01:59;;;;;;;;;;;;;;;17.96;33.95;100762.31;102673;1297;61410;-81
2024/02/24 10:04:25;;;;;;;;;;;;;;;17.97;33.89;100760.51;102802;1291;61322;-81
2024/02/24 10:06:51;;;;;;;;;;;;;;;17.97;34.00;100759.40;102929;1294;61442;-80
2024/02/24 10:09:16;;;;;;;;;;;;;;;17.98;33.81;100755.99;102745;1295;61409;-81
2024/02/24 10:11:42;;;;;;;;;;;;;;;17.98;33.93;100756.33;102693;1291;62593;-80
2024/02/24 10:14:08;;;;;;;;;;;;;;;17.98;33.91;100755.77;102855;1294;61334;-81
2024/02/24 10:16:34;;;;;;;;;;;;;;;17.99;33.98;100751.98;103003;1294;61462;-81
2024/02/24 10:19:00;;;;;;;;;;;;;;;17.99;34.01;100742.55;102710;1292;61498;-82
2024/02/24 10:21:26;;;;;;;;;;;;;;;18.00;33.99;100745.14;103027;1291;61400;-82
2024/02/24 10:23:51;;;;;;;;;;;;;;;18.00;33.92;100746.03;102656;1295;61386;-78
2024/02/24 10:26:17;;;;;;;;;;;;;;;18.00;33.96;100741.56;102835;1289;61772;-80
2024/02/24 10:28:42;;;;;;;;;;;;;;;18.00;33.96;100736.42;103182;1293;61398;-84
2024/02/24 10:31:08;;;;;;;;;;;;;;;18.01;33.86;100736.01;103048;1294;61478;-80
2024/02/24 10:33:45;;;;;;;;;;;;;;;18.01;33.85;100736.54;102742;1297;61377;-79
2024/02/24 10:36:10;;;;;;;;;;;;;;;18.01;33.95;100736.73;102689;1295;74546;-80
2024/02/24 10:38:37;;;;;;;;;;;;;;;18.02;33.95;100741.14;102660;1294;61657;-82
2024/02/24 10:41:02;;;;;;;;;;;;;;;18.02;34.04;100739.17;102694;1295;61461;-82
2024/02/24 10:43:28;;;;;;;;;;;;;;;18.02;34.10;100737.23;102686;1297;61566;-80
2024/02/24 10:45:54;;;;;;;;;;;;;;;18.02;34.09;100735.61;102976;1293;62558;-81
2024/02/24 10:48:20;;;;;;;;;;;;;;;18.02;33.95;100735.98;102766;1294;61472;-82
2024/02/24 10:50:47;;;;;;;;;;;;;;;18.01;33.97;100731.17;102970;1292;61332;-80
2024/02/24 10:53:13;;;;;;;;;;;;;;;18.01;33.91;100725.13;103012;1289;61908;-79
2024/02/24 10:55:38;;;;;;;;;;;;;;;18.02;34.02;100726.36;102684;1296;72630;-81
2024/02/24 10:58:05;;;;;;;;;;;;;;;18.01;34.01;100727.09;102806;1289;61469;-81
2024/02/24 11:00:31;;;;;;;;;;;;;;;18.01;33.95;100722.83;102940;1294;61436;-79
2024/02/24 11:03:01;;;;;;;;;;;;;;;18.01;33.97;100717.14;102673;1295;61376;-80
2024/02/24 11:05:31;;;;;;;;;;;;;;;18.00;33.88;100717.16;103013;1290;72491;-81
2024/02/24 11:07:56;;;;;;;;;;;;;;;18.00;33.93;100715.55;102958;1294;74593;-80
2024/02/24 11:10:22;;;;;;;;;;;;;;;18.00;33.98;100714.34;102989;1294;62423;-80
2024/02/24 11:12:51;;;;;;;;;;;;;;;17.99;34.00;100706.39;102741;1295;61407;-80
2024/02/24 11:15:18;;;;;;;;;;;;;;;17.99;34.02;100707.65;102958;1294;72561;-80
2024/02/24 11:17:51;;;;;;;;;;;;;;;17.99;33.98;100703.39;102708;1295;61367;-81
2024/02/24 11:20:37;;;;;;;;;;;;;;;17.98;34.06;100703.94;102995;1291;62461;-80
2024/02/24 11:23:21;;;;;;;;;;;;;;;17.98;34.08;100707.04;102938;1294;61327;-80
2024/02/24 11:26:07;;;;;;;;;;;;;;;17.97;34.04;100707.23;103135;1294;73497;-80
2024/02/24 11:28:32;;;;;;;;;;;;;;;17.97;34.05;100703.15;102813;1293;74338;-82
2024/02/24 11:30:58;;;;;;;;;;;;;;;17.97;33.87;100698.17;102629;1295;61515;-81
2024/02/24 11:33:24;;;;;;;;;;;;;;;17.96;34.01;100697.83;102784;1291;61402;-81
2024/02/24 11:35:52;;;;;;;;;;;;;;;17.96;34.01;100697.36;102698;1294;61335;-81
2024/02/24 11:38:19;;;;;;;;;;;;;;;17.95;34.04;100699.50;102969;1294;62166;-80
2024/02/24 11:40:46;;;;;;;;;;;;;;;17.95;34.07;100692.75;102740;1289;61321;-80
2024/02/24 11:43:15;;;;;;;;;;;;;;;17.95;34.05;100693.14;102720;1294;61318;-79
2024/02/24 11:45:55;;;;;;;;;;;;;;;17.94;34.11;100688.89;102980;1293;72539;-80
2024/02/24 11:48:22;;;;;;;;;;;;;;;17.94;34.00;100691.71;102997;1290;74300;-79
2024/02/24 11:50:48;;;;;;;;;;;;;;;17.94;34.02;100691.92;102694;1297;62668;-80
2024/02/24 11:53:14;;;;;;;;;;;;;;;17.93;34.05;100690.68;102696;1291;62059;-81
2024/02/24 11:55:43;;;;;;;;;;;;;;;17.93;34.04;100694.62;102723;1296;61915;-79
2024/02/24 11:58:08;;;;;;;;;;;;;;;17.93;34.03;100691.23;102884;1292;75312;-80
2024/02/24 12:00:37;;;;;;;;;;;;;;;17.94;34.01;100684.98;102920;1294;61427;-81
2024/02/24 12:03:03;;;;;;;;;;;;;;;17.93;33.94;100689.45;102792;1291;61346;-83
2024/02/24 12:05:28;;;;;;;;;;;;;;;17.94;33.99;100686.23;102913;1294;61339;-81
2024/02/24 12:07:54;;;;;;;;;;;;;;;17.94;33.97;100679.97;102644;1294;62175;-79
2024/02/24 12:10:21;;;;;;;;;;;;;;;17.94;34.05;100679.79;103059;1290;61402;-80
2024/02/24 12:12:46;;;;;;;;;;;;;;;17.95;34.04;100677.80;102657;1290;61399;-83
2024/02/24 12:15:14;;;;;;;;;;;;;;;17.95;34.03;100676.71;102656;1295;61421;-80
2024/02/24 12:17:40;;;;;;;;;;;;;;;17.95;33.96;100675.81;103125;1293;61402;-80
2024/02/24 12:20:08;;;;;;;;;;;;;;;17.96;34.06;100671.67;102619;1294;61493;-81
2024/02/24 12:22:34;;;;;;;;;;;;;;;17.97;33.98;100675.54;102777;1296;61310;-81
2024/02/24 12:25:14;;;;;;;;;;;;;;;17.97;33.92;100674.81;103035;1293;61390;-80
2024/02/24 12:27:41;;;;;;;;;;;;;;;17.98;34.07;100673.52;102685;1294;74500;-80
2024/02/24 12:30:07;;;;;;;;;;;;;;;17.99;34.00;100671.17;102713;1294;61903;-82
2024/02/24 12:32:33;;;;;;;;;;;;;;;17.99;34.08;100672.90;102753;1289;61868;-81
2024/02/24 12:35:02;;;;;;;;;;;;;;;18.00;34.05;100668.21;102657;1300;61404;-81